createdAt,value
2019-03-04T00:01:47.476Z,26.10
2019-03-04T00:04:39.656Z,26.10
2019-03-04T00:07:33.400Z,26.10
2019-03-04T00:10:25.813Z,26.10
2019-03-04T00:13:18.259Z,26.10
2019-03-04T00:16:10.528Z,26.10
2019-03-04T00:19:05.299Z,26.10
2019-03-04T00:21:58.387Z,26.10
2019-03-04T00:24:50.709Z,26.20
2019-03-04T00:27:42.823Z,26.10
2019-03-04T00:30:36.903Z,26.10
2019-03-04T00:33:29.256Z,26.10
2019-03-04T00:36:21.215Z,26.10
2019-03-04T00:39:14.492Z,26.10
2019-03-04T00:42:06.699Z,26.10
2019-03-04T00:44:58.826Z,26.10
2019-03-04T00:47:50.806Z,26.10
2019-03-04T00:50:43.038Z,26.10
2019-03-04T00:53:37.036Z,26.10
2019-03-04T00:56:29.730Z,26.10
2019-03-04T00:59:21.942Z,26.10
2019-03-04T01:02:14.203Z,26.10
2019-03-04T01:05:08.699Z,26.10
2019-03-04T01:08:01.054Z,26.10
2019-03-04T01:10:52.947Z,26.10
2019-03-04T01:13:44.933Z,26.10
2019-03-04T01:16:37.122Z,26.10
2019-03-04T01:19:30.090Z,26.10
2019-03-04T01:22:22.218Z,26.10
2019-03-04T01:25:15.146Z,26.10
2019-03-04T01:28:06.979Z,26.10
2019-03-04T01:31:02.346Z,26.10
2019-03-04T01:33:54.032Z,26.20
2019-03-04T01:36:46.227Z,26.20
2019-03-04T01:39:38.335Z,26.20
2019-03-04T01:42:33.912Z,26.10
2019-03-04T01:45:26.376Z,26.20
2019-03-04T01:48:19.829Z,26.20
2019-03-04T01:51:12.993Z,26.10
2019-03-04T01:54:08.438Z,26.10
2019-03-04T01:57:00.705Z,26.10
2019-03-04T01:59:52.860Z,26.10
2019-03-04T02:02:44.964Z,26.10
2019-03-04T02:05:38.342Z,26.10
2019-03-04T02:08:30.590Z,26.10
2019-03-04T02:11:23.725Z,26.10
2019-03-04T02:14:15.767Z,26.20
2019-03-04T02:17:12.554Z,26.10
2019-03-04T02:20:04.670Z,26.10
2019-03-04T02:22:57.152Z,26.20
2019-03-04T02:26:11.896Z,26.20
2019-03-04T02:29:04.300Z,26.20
2019-03-04T02:32:00.545Z,26.20
2019-03-04T02:34:52.514Z,26.20
2019-03-04T02:37:44.408Z,26.20
2019-03-04T02:40:36.606Z,26.20
2019-03-04T02:43:29.055Z,26.10
2019-03-04T02:46:21.374Z,26.20
2019-03-04T02:49:13.988Z,26.30
2019-03-04T02:52:06.176Z,26.20
2019-03-04T02:54:59.020Z,26.20
2019-03-04T02:57:52.488Z,26.30
2019-03-04T03:00:44.605Z,26.30
2019-03-04T03:03:36.813Z,26.20
2019-03-04T03:06:29.018Z,26.20
2019-03-04T03:09:24.489Z,26.20
2019-03-04T03:12:16.825Z,26.30
2019-03-04T03:15:09.680Z,26.20
2019-03-04T03:18:02.230Z,26.20
2019-03-04T03:20:55.278Z,26.20
2019-03-04T03:23:47.734Z,26.10
2019-03-04T03:26:40.091Z,26.10
2019-03-04T03:29:32.324Z,26.20
2019-03-04T03:32:25.386Z,26.10
2019-03-04T03:35:17.646Z,26.10
2019-03-04T03:38:10.420Z,26.10
2019-03-04T03:41:02.832Z,26.10
2019-03-04T03:43:58.184Z,26.10
2019-03-04T03:46:50.525Z,26.10
2019-03-04T03:49:44.443Z,26.10
2019-03-04T03:52:36.357Z,26.10
2019-03-04T03:55:34.868Z,26.10
2019-03-04T03:58:27.466Z,26.10
2019-03-04T04:01:20.947Z,26.20
2019-03-04T04:04:17.000Z,26.20
2019-03-04T04:07:10.364Z,26.20
2019-03-04T04:10:02.986Z,26.20
2019-03-04T04:12:56.202Z,26.20
2019-03-04T04:15:49.356Z,26.20
2019-03-04T04:18:41.995Z,26.20
2019-03-04T04:21:35.165Z,26.20
2019-03-04T04:24:29.944Z,26.20
2019-03-04T04:27:22.932Z,26.20
2019-03-04T04:30:18.551Z,26.20
2019-03-04T04:33:11.240Z,26.20
2019-03-04T04:36:04.817Z,26.20
2019-03-04T04:38:57.433Z,26.20
2019-03-04T04:41:50.723Z,26.30
2019-03-04T04:44:44.021Z,26.30
2019-03-04T04:47:40.349Z,26.30
2019-03-04T04:50:33.609Z,26.30
2019-03-04T04:53:27.392Z,26.30
2019-03-04T04:56:25.680Z,26.30
2019-03-04T04:59:18.625Z,26.30
2019-03-04T05:02:11.263Z,26.30
2019-03-04T05:05:04.218Z,26.30
2019-03-04T05:07:59.626Z,26.30
2019-03-04T05:10:52.184Z,26.30
2019-03-04T05:13:45.247Z,26.30
2019-03-04T05:16:40.142Z,26.30
2019-03-04T05:19:33.251Z,26.30
2019-03-04T05:22:26.516Z,26.40
2019-03-04T05:25:21.049Z,26.40
2019-03-04T05:28:14.320Z,26.40
2019-03-04T05:31:07.203Z,26.40
2019-03-04T05:33:59.841Z,26.40
2019-03-04T05:36:52.809Z,26.40
2019-03-04T06:02:30.719Z,26.50
2019-03-04T06:05:27.013Z,26.40
2019-03-04T06:08:19.541Z,26.40
2019-03-04T06:11:11.760Z,26.40
2019-03-04T06:20:11.628Z,26.40
2019-03-04T06:29:10.698Z,26.40
2019-03-04T06:32:15.576Z,26.40
2019-03-04T06:35:24.539Z,26.40
2019-03-04T06:38:26.649Z,26.40
2019-03-04T06:41:22.729Z,26.40
2019-03-04T06:48:07.571Z,26.50
2019-03-04T06:49:48.383Z,26.40
2019-03-04T06:50:54.511Z,26.40
2019-03-04T06:53:54.044Z,26.50
2019-03-04T06:56:54.478Z,26.50
2019-03-04T07:00:10.310Z,26.50
2019-03-04T07:03:30.209Z,26.50
2019-03-04T07:06:28.369Z,26.50
2019-03-04T07:09:36.962Z,26.50
2019-03-04T07:12:34.814Z,26.50
2019-03-04T07:15:45.015Z,26.50
2019-03-04T07:18:38.197Z,26.50
2019-03-04T07:21:33.840Z,26.50
2019-03-04T07:24:26.660Z,26.50
2019-03-04T07:27:27.562Z,26.50
2019-03-04T07:30:31.046Z,26.50
2019-03-04T07:33:23.447Z,26.50
2019-03-04T07:36:16.635Z,26.50
2019-03-04T07:39:13.504Z,26.50
2019-03-04T07:42:08.782Z,26.50
2019-03-04T07:45:02.216Z,26.50
2019-03-04T07:47:55.975Z,26.50
2019-03-04T07:50:52.255Z,26.50
2019-03-04T07:53:50.542Z,26.50
2019-03-04T07:56:43.525Z,26.50
2019-03-04T07:59:42.983Z,26.50
2019-03-04T08:02:35.859Z,26.50
2019-03-04T08:05:28.123Z,26.50
2019-03-04T08:08:21.616Z,26.40
2019-03-04T08:11:35.955Z,26.50
2019-03-04T08:14:32.778Z,26.50
2019-03-04T08:17:31.947Z,26.40
2019-03-04T08:20:32.769Z,26.50
2019-03-04T08:24:29.580Z,26.50
2019-03-04T08:30:17.404Z,26.60
2019-03-04T08:40:29.422Z,26.80
2019-03-04T08:43:28.005Z,26.80
2019-03-04T08:46:21.378Z,26.80
2019-03-04T08:49:18.048Z,26.90
2019-03-04T08:52:12.749Z,26.80
2019-03-04T08:58:38.981Z,26.90
2019-03-04T09:01:32.924Z,27.00
2019-03-04T09:04:25.587Z,27.00
2019-03-04T09:07:29.440Z,27.00
2019-03-04T09:10:37.539Z,27.00
2019-03-04T09:15:16.383Z,27.00
2019-03-04T09:17:21.465Z,27.10
2019-03-04T09:20:16.332Z,27.00
2019-03-04T09:23:12.331Z,27.00
2019-03-04T09:26:13.947Z,27.00
2019-03-04T09:29:48.995Z,27.00
2019-03-04T09:32:41.912Z,27.00
2019-03-04T09:35:37.384Z,27.10
2019-03-04T09:38:35.377Z,27.10
2019-03-04T09:41:39.936Z,27.10
2019-03-04T09:44:37.582Z,27.10
2019-03-04T09:47:47.381Z,27.10
2019-03-04T09:50:40.157Z,27.10
2019-03-04T09:53:39.590Z,27.10
2019-03-04T09:56:34.977Z,27.10
2019-03-04T09:59:27.469Z,27.10
2019-03-04T10:02:26.366Z,27.10
2019-03-04T10:05:24.112Z,27.10
2019-03-04T10:08:50.467Z,27.10
2019-03-04T10:12:18.908Z,27.10
2019-03-04T10:15:35.398Z,27.10
2019-03-04T10:18:49.487Z,27.10
2019-03-04T10:21:49.966Z,27.10
2019-03-04T10:24:45.441Z,27.10
2019-03-04T10:28:05.211Z,27.20
2019-03-04T10:31:05.549Z,27.20
2019-03-04T10:34:14.889Z,27.20
2019-03-04T10:37:13.475Z,27.20
2019-03-04T10:40:34.809Z,27.10
2019-03-04T10:43:49.202Z,27.10
2019-03-04T10:47:06.197Z,27.10
2019-03-04T10:49:59.573Z,27.10
2019-03-04T10:52:52.182Z,27.00
2019-03-04T10:55:44.851Z,27.10
2019-03-04T10:58:37.442Z,27.00
2019-03-04T11:01:30.770Z,27.00
2019-03-04T11:04:23.086Z,27.00
2019-03-04T11:07:16.987Z,27.10
2019-03-04T11:10:09.766Z,27.10
2019-03-04T11:13:03.402Z,27.00
2019-03-04T11:15:58.350Z,27.00
2019-03-04T11:18:50.831Z,27.00
2019-03-04T11:21:43.600Z,27.00
2019-03-04T11:24:36.735Z,27.00
2019-03-04T11:27:29.461Z,27.00
2019-03-04T11:30:23.565Z,27.00
2019-03-04T11:33:16.199Z,27.00
2019-03-04T11:36:08.677Z,26.90
2019-03-04T11:39:34.309Z,27.00
2019-03-04T11:42:20.598Z,27.00
2019-03-04T11:45:16.364Z,26.90
2019-03-04T11:48:09.450Z,26.90
2019-03-04T11:51:02.159Z,26.90
2019-03-04T11:54:03.509Z,26.90
2019-03-04T11:56:56.312Z,26.90
2019-03-04T11:59:48.832Z,26.90
2019-03-04T12:02:41.653Z,26.80
2019-03-04T12:05:34.647Z,26.90
2019-03-04T12:08:27.276Z,26.80
2019-03-04T12:11:22.196Z,26.90
2019-03-04T12:14:14.815Z,26.80
2019-03-04T12:17:09.658Z,26.80
2019-03-04T12:20:01.849Z,26.80
2019-03-04T12:22:54.389Z,26.80
2019-03-04T12:25:47.004Z,26.80
2019-03-04T12:28:39.703Z,26.80
2019-03-04T12:31:36.163Z,26.80
2019-03-04T12:34:34.005Z,26.80
2019-03-04T12:37:27.458Z,26.80
2019-03-04T12:40:22.118Z,26.80
2019-03-04T12:43:24.391Z,26.80
2019-03-04T12:46:12.583Z,26.80
2019-03-04T12:49:06.184Z,26.80
2019-03-04T12:52:03.293Z,26.80
2019-03-04T12:54:55.097Z,26.80
2019-03-04T12:57:49.234Z,26.80
2019-03-04T13:00:42.009Z,26.80
2019-03-04T13:03:35.267Z,26.80
2019-03-04T13:06:30.933Z,26.80
2019-03-04T13:09:23.699Z,26.80
2019-03-04T13:12:19.172Z,26.80
2019-03-04T13:15:13.818Z,26.80
2019-03-04T13:18:06.665Z,26.80
2019-03-04T13:20:59.771Z,26.80
2019-03-04T13:23:52.386Z,26.80
2019-03-04T13:26:45.414Z,26.80
2019-03-04T13:29:37.888Z,26.80
2019-03-04T13:32:37.873Z,26.80
2019-03-04T13:35:31.785Z,26.70
2019-03-04T13:38:26.923Z,26.80
2019-03-04T13:41:21.047Z,26.80
2019-03-04T13:44:14.793Z,26.80
2019-03-04T13:47:07.785Z,26.80
2019-03-04T13:50:02.065Z,26.70
2019-03-04T13:52:55.174Z,26.70
2019-03-04T13:55:49.362Z,26.70
2019-03-04T13:58:42.086Z,26.70
2019-03-04T14:01:35.848Z,26.80
2019-03-04T14:04:28.803Z,26.80
2019-03-04T14:07:23.460Z,26.80
2019-03-04T14:10:16.848Z,26.80
2019-03-04T14:13:09.572Z,26.70
2019-03-04T14:16:02.209Z,26.70
2019-03-04T14:18:55.092Z,26.80
2019-03-04T14:21:47.809Z,26.80
2019-03-04T14:24:41.365Z,26.70
2019-03-04T14:27:33.472Z,26.70
2019-03-04T14:30:26.430Z,26.70
2019-03-04T14:33:19.997Z,26.70
2019-03-04T14:36:12.979Z,26.70
2019-03-04T14:39:06.108Z,26.70
2019-03-04T14:42:01.520Z,26.70
2019-03-04T14:44:57.715Z,26.70
2019-03-04T14:47:51.183Z,26.70
2019-03-04T14:50:43.768Z,26.70
2019-03-04T14:53:37.151Z,26.70
2019-03-04T14:56:29.600Z,26.70
2019-03-04T14:59:25.499Z,26.70
2019-03-04T15:02:20.242Z,26.70
2019-03-04T15:05:13.381Z,26.70
2019-03-04T15:08:13.335Z,26.70
2019-03-04T15:11:06.184Z,26.70
2019-03-04T15:13:58.864Z,26.70
2019-03-04T15:16:52.133Z,26.70
2019-03-04T15:19:44.957Z,26.70
2019-03-04T15:22:38.123Z,26.70
2019-03-04T15:25:31.737Z,26.70
2019-03-04T15:28:24.554Z,26.70
2019-03-04T15:31:16.884Z,26.70
2019-03-04T15:34:12.577Z,26.70
2019-03-04T15:37:04.693Z,26.70
2019-03-04T15:39:57.571Z,26.70
2019-03-04T15:42:51.464Z,26.70
2019-03-04T15:45:46.668Z,26.70
2019-03-04T15:48:39.768Z,26.70
2019-03-04T15:51:37.189Z,26.70
2019-03-04T15:54:30.282Z,26.70
2019-03-04T15:57:25.881Z,26.70
2019-03-04T16:00:18.396Z,26.70
2019-03-04T16:03:15.432Z,26.70
2019-03-04T16:06:05.196Z,26.70
2019-03-04T16:08:57.692Z,26.70
2019-03-04T16:11:50.517Z,26.70
2019-03-04T16:14:42.761Z,26.70
2019-03-04T16:17:38.731Z,26.70
2019-03-04T16:20:31.227Z,26.70
2019-03-04T16:23:24.053Z,26.70
2019-03-04T16:26:16.797Z,26.70
2019-03-04T16:29:11.715Z,26.70
2019-03-04T16:32:04.012Z,26.70
2019-03-04T16:34:59.462Z,26.70
2019-03-04T16:37:51.878Z,26.60
2019-03-04T16:40:44.392Z,26.70
2019-03-04T16:43:36.885Z,26.70
2019-03-04T16:46:29.504Z,26.70
2019-03-04T16:49:21.805Z,26.70
2019-03-04T16:52:13.891Z,26.70
2019-03-04T16:55:09.024Z,26.70
2019-03-04T16:58:01.346Z,26.70
2019-03-04T17:00:53.984Z,26.70
2019-03-04T17:03:46.733Z,26.70
2019-03-04T17:06:38.829Z,26.70
2019-03-04T17:09:32.783Z,26.70
2019-03-04T17:12:24.829Z,26.70
2019-03-04T17:15:17.916Z,26.70
2019-03-04T17:18:11.690Z,26.70
2019-03-04T17:21:04.304Z,26.70
2019-03-04T17:23:56.869Z,26.60
2019-03-04T17:26:51.968Z,26.70
2019-03-04T17:29:42.932Z,26.70
2019-03-04T17:32:35.072Z,26.70
2019-03-04T17:35:27.129Z,26.70
2019-03-04T17:38:20.451Z,26.70
2019-03-04T17:41:12.493Z,26.70
2019-03-04T17:44:04.889Z,26.70
2019-03-04T17:46:57.127Z,26.70
2019-03-04T17:49:49.190Z,26.70
2019-03-04T17:52:42.730Z,26.70
2019-03-04T17:55:34.897Z,26.70
2019-03-04T17:58:28.253Z,26.70
2019-03-04T18:01:20.575Z,26.70
2019-03-04T18:04:14.067Z,26.70
2019-03-04T18:07:06.398Z,26.60
2019-03-04T18:09:58.689Z,26.60
2019-03-04T18:12:53.108Z,26.70
2019-03-04T18:15:44.697Z,26.70
2019-03-04T18:18:37.173Z,26.70
2019-03-04T18:21:29.924Z,26.60
2019-03-04T18:24:22.415Z,26.60
2019-03-04T18:27:17.103Z,26.70
2019-03-04T18:30:15.951Z,26.60
2019-03-04T18:33:26.193Z,26.60
2019-03-04T18:36:51.871Z,26.70
2019-03-04T18:40:00.019Z,26.70
2019-03-04T18:43:06.860Z,26.70
2019-03-04T18:46:17.490Z,26.70
2019-03-04T18:49:09.841Z,26.70
2019-03-04T18:52:02.466Z,26.70
2019-03-04T18:54:55.279Z,26.70
2019-03-04T18:57:48.664Z,26.70
2019-03-04T19:04:24.400Z,26.70
2019-03-04T19:10:59.352Z,26.70
2019-03-04T19:13:52.260Z,26.60
2019-03-04T19:16:44.639Z,26.70
2019-03-04T19:19:37.407Z,26.70
2019-03-04T19:22:29.825Z,26.70
2019-03-04T19:25:22.189Z,26.70
2019-03-04T19:28:14.630Z,26.70
2019-03-04T19:31:09.235Z,26.60
2019-03-04T19:34:01.489Z,26.60
2019-03-04T19:36:53.509Z,26.60
2019-03-04T19:39:45.933Z,26.60
2019-03-04T19:42:38.200Z,26.60
2019-03-04T19:45:30.575Z,26.60
2019-03-04T19:48:25.241Z,26.60
2019-03-04T19:51:16.636Z,26.60
2019-03-04T19:54:08.930Z,26.60
2019-03-04T20:00:43.711Z,26.60
2019-03-04T20:07:06.241Z,26.60
2019-03-04T20:09:58.811Z,26.60
2019-03-04T20:12:52.246Z,26.60
2019-03-04T20:15:44.525Z,26.70
2019-03-04T20:18:36.853Z,26.70
2019-03-04T20:21:29.169Z,26.60
2019-03-04T20:27:49.488Z,26.60
2019-03-04T20:30:41.865Z,26.60
2019-03-04T20:33:36.206Z,26.60
2019-03-04T20:36:29.082Z,26.60
2019-03-04T20:39:24.167Z,26.60
2019-03-04T20:42:16.147Z,26.60
2019-03-04T20:45:09.963Z,26.60
2019-03-04T20:48:02.267Z,26.60
2019-03-04T20:50:57.123Z,26.60
2019-03-04T20:53:49.569Z,26.60
2019-03-04T20:56:42.196Z,26.60
2019-03-04T20:59:34.750Z,26.60
2019-03-04T21:02:27.738Z,26.60
2019-03-04T21:05:20.449Z,26.60
2019-03-04T21:08:12.870Z,26.60
2019-03-04T21:11:05.268Z,26.60
2019-03-04T21:13:57.665Z,26.60
2019-03-04T21:16:50.018Z,26.60
2019-03-04T21:19:42.423Z,26.60
2019-03-04T21:22:35.538Z,26.60
2019-03-04T21:25:38.378Z,26.60
2019-03-04T21:28:38.587Z,26.60
2019-03-04T21:31:34.735Z,26.60
2019-03-04T21:34:44.784Z,26.60
2019-03-04T21:37:39.483Z,26.60
2019-03-04T21:40:55.311Z,26.60
2019-03-04T21:43:49.882Z,26.60
2019-03-04T21:47:03.019Z,26.60
2019-03-04T21:49:56.271Z,26.60
2019-03-04T21:53:09.883Z,26.60
2019-03-04T21:56:10.127Z,26.60
2019-03-04T21:59:02.520Z,26.60
2019-03-04T22:01:56.983Z,26.60
2019-03-04T22:04:49.293Z,26.60
2019-03-04T22:07:45.034Z,26.60
2019-03-04T22:10:37.153Z,26.60
2019-03-04T22:13:29.431Z,26.60
2019-03-04T22:16:21.821Z,26.70
2019-03-04T22:19:14.608Z,26.60
2019-03-04T22:22:08.146Z,26.70
2019-03-04T22:25:00.443Z,26.60
2019-03-04T22:27:52.790Z,26.60
2019-03-04T22:30:45.289Z,26.60
2019-03-04T22:33:38.084Z,26.60
2019-03-04T22:36:30.359Z,26.60
2019-03-04T22:39:22.515Z,26.60
2019-03-04T22:42:14.617Z,26.60
2019-03-04T22:45:07.577Z,26.60
2019-03-04T22:47:59.789Z,26.60
2019-03-04T22:50:52.243Z,26.60
2019-03-04T22:53:44.755Z,26.60
2019-03-04T22:56:37.185Z,26.60
2019-03-04T22:59:29.744Z,26.60
2019-03-04T23:02:22.146Z,26.60
2019-03-04T23:05:19.280Z,26.60
2019-03-04T23:08:11.498Z,26.60
2019-03-04T23:11:04.098Z,26.60
2019-03-04T23:14:04.657Z,26.60
2019-03-04T23:16:57.025Z,26.60
2019-03-04T23:19:49.060Z,26.60
2019-03-04T23:22:41.501Z,26.60
2019-03-04T23:25:33.846Z,26.60
2019-03-04T23:28:26.221Z,26.60
2019-03-04T23:31:18.567Z,26.60
2019-03-04T23:34:10.788Z,26.60
2019-03-04T23:37:03.130Z,26.60
2019-03-04T23:39:55.609Z,26.70
2019-03-04T23:42:48.391Z,26.70
2019-03-04T23:45:40.669Z,26.70
2019-03-04T23:48:33.121Z,26.60
2019-03-04T23:51:25.692Z,26.70
2019-03-04T23:54:18.378Z,26.70
2019-03-04T23:57:11.744Z,26.70
